Aberdeen, Idaho
Current Conditions -  °F | °C
As of 9:53 AM on Thursday 27 Nov 2014 (Local Time) from KPIH Reporting Station
Broken Clouds Broken Clouds  
Wind Chill: 53°   Ceiling: 12000
Heat Index: 53°   Visibility: 10mi
Dew Point: 28°   Wind: 12mph
Humidity: 38%   Direction: 200°SSW
Pressure: 30.23"   Gusts: NA
Location:  42.94°N, 112.84°W
Report Text: KPIH 271653Z 20010KT 10SM BKN120 12/M02 A3023 RMK AO2 SLP224 T01171022
Loading
Personal Weather Stations






























Interactive Weather Map New forecast layout! Learn more

10-Day Weather Forecast

Advertisements
Track Severe Weather on mobile